sensor_id;sensor_type;location;lat;lon;timestamp;temperature;humidity
18218;DHT22;9234;49.344;11.120;2023-04-29T00:01:59;11.70;99.90
18218;DHT22;9234;49.344;11.120;2023-04-29T00:04:27;11.80;99.90
18218;DHT22;9234;49.344;11.120;2023-04-29T00:06:56;11.80;99.90
18218;DHT22;9234;49.344;11.120;2023-04-29T00:09:25;11.80;99.90
18218;DHT22;9234;49.344;11.120;2023-04-29T00:11:53;11.90;99.90
18218;DHT22;9234;49.344;11.120;2023-04-29T00:14:21;11.90;99.90
18218;DHT22;9234;49.344;11.120;2023-04-29T00:16:50;11.90;99.90
18218;DHT22;9234;49.344;11.120;2023-04-29T00:19:19;11.90;99.90
18218;DHT22;9234;49.344;11.120;2023-04-29T00:21:48;11.90;99.90
18218;DHT22;9234;49.344;11.120;2023-04-29T00:24:16;12.00;99.90
18218;DHT22;9234;49.344;11.120;2023-04-29T00:26:45;12.00;99.90
18218;DHT22;9234;49.344;11.120;2023-04-29T00:29:14;12.00;99.90
18218;DHT22;9234;49.344;11.120;2023-04-29T00:31:42;12.00;99.90
18218;DHT22;9234;49.344;11.120;2023-04-29T00:34:10;12.00;99.90
18218;DHT22;9234;49.344;11.120;2023-04-29T00:36:39;12.00;99.90
18218;DHT22;9234;49.344;11.120;2023-04-29T00:39:07;12.00;99.90
18218;DHT22;9234;49.344;11.120;2023-04-29T00:41:35;12.10;99.90
18218;DHT22;9234;49.344;11.120;2023-04-29T00:44:06;12.10;99.90
18218;DHT22;9234;49.344;11.120;2023-04-29T00:46:34;12.10;99.90
18218;DHT22;9234;49.344;11.120;2023-04-29T00:49:03;12.10;99.90
18218;DHT22;9234;49.344;11.120;2023-04-29T00:51:31;12.10;99.90
18218;DHT22;9234;49.344;11.120;2023-04-29T00:54:00;12.10;99.90
18218;DHT22;9234;49.344;11.120;2023-04-29T00:56:30;12.10;99.90
18218;DHT22;9234;49.344;11.120;2023-04-29T00:59:02;12.10;99.90
18218;DHT22;9234;49.344;11.120;2023-04-29T01:01:33;12.10;99.90
18218;DHT22;9234;49.344;11.120;2023-04-29T01:04:01;12.10;99.90
18218;DHT22;9234;49.344;11.120;2023-04-29T01:06:44;12.10;99.90
18218;DHT22;9234;49.344;11.120;2023-04-29T01:09:32;12.10;99.90
18218;DHT22;9234;49.344;11.120;2023-04-29T01:12:20;12.10;99.90
18218;DHT22;9234;49.344;11.120;2023-04-29T01:15:03;12.10;99.90
18218;DHT22;9234;49.344;11.120;2023-04-29T01:17:40;12.10;99.90
18218;DHT22;9234;49.344;11.120;2023-04-29T01:20:12;12.10;99.90
18218;DHT22;9234;49.344;11.120;2023-04-29T01:22:41;12.10;99.90
18218;DHT22;9234;49.344;11.120;2023-04-29T01:25:11;12.10;99.90
18218;DHT22;9234;49.344;11.120;2023-04-29T01:28:06;12.00;99.90
18218;DHT22;9234;49.344;11.120;2023-04-29T01:30:44;12.00;99.90
18218;DHT22;9234;49.344;11.120;2023-04-29T01:33:22;11.90;99.90
18218;DHT22;9234;49.344;11.120;2023-04-29T01:36:07;11.80;99.90
18218;DHT22;9234;49.344;11.120;2023-04-29T01:38:48;11.80;99.90
18218;DHT22;9234;49.344;11.120;2023-04-29T01:41:33;11.70;99.90
18218;DHT22;9234;49.344;11.120;2023-04-29T01:44:19;11.60;99.90
18218;DHT22;9234;49.344;11.120;2023-04-29T01:46:52;11.60;99.90
18218;DHT22;9234;49.344;11.120;2023-04-29T01:49:26;11.50;99.90
18218;DHT22;9234;49.344;11.120;2023-04-29T01:51:55;11.40;99.90
18218;DHT22;9234;49.344;11.120;2023-04-29T01:54:23;11.40;99.90
18218;DHT22;9234;49.344;11.120;2023-04-29T01:56:54;11.30;99.90
18218;DHT22;9234;49.344;11.120;2023-04-29T01:59:41;11.20;99.90
18218;DHT22;9234;49.344;11.120;2023-04-29T02:02:32;11.20;99.90
18218;DHT22;9234;49.344;11.120;2023-04-29T02:05:10;11.10;99.90
18218;DHT22;9234;49.344;11.120;2023-04-29T02:07:43;11.00;99.90
18218;DHT22;9234;49.344;11.120;2023-04-29T02:10:11;10.90;99.90
18218;DHT22;9234;49.344;11.120;2023-04-29T02:12:43;10.90;99.90
18218;DHT22;9234;49.344;11.120;2023-04-29T02:15:12;10.90;99.90
18218;DHT22;9234;49.344;11.120;2023-04-29T02:17:40;10.90;99.90
18218;DHT22;9234;49.344;11.120;2023-04-29T02:20:09;10.80;99.90
18218;DHT22;9234;49.344;11.120;2023-04-29T02:22:38;10.80;99.90
18218;DHT22;9234;49.344;11.120;2023-04-29T02:25:07;10.80;99.90
18218;DHT22;9234;49.344;11.120;2023-04-29T02:27:36;10.80;99.90
18218;DHT22;9234;49.344;11.120;2023-04-29T02:30:07;10.80;99.90
18218;DHT22;9234;49.344;11.120;2023-04-29T02:32:36;10.80;99.90
18218;DHT22;9234;49.344;11.120;2023-04-29T02:35:05;10.80;99.90
18218;DHT22;9234;49.344;11.120;2023-04-29T02:37:34;10.70;99.90
18218;DHT22;9234;49.344;11.120;2023-04-29T02:40:03;10.70;99.90
18218;DHT22;9234;49.344;11.120;2023-04-29T02:42:32;10.60;99.90
18218;DHT22;9234;49.344;11.120;2023-04-29T02:45:00;10.60;99.90
18218;DHT22;9234;49.344;11.120;2023-04-29T02:47:31;10.60;99.90
18218;DHT22;9234;49.344;11.120;2023-04-29T02:49:59;10.60;99.90
18218;DHT22;9234;49.344;11.120;2023-04-29T02:52:28;10.60;99.90
18218;DHT22;9234;49.344;11.120;2023-04-29T02:54:56;10.50;99.90
18218;DHT22;9234;49.344;11.120;2023-04-29T02:57:24;10.50;99.90
18218;DHT22;9234;49.344;11.120;2023-04-29T02:59:52;10.60;99.90
18218;DHT22;9234;49.344;11.120;2023-04-29T03:02:20;10.60;99.90
18218;DHT22;9234;49.344;11.120;2023-04-29T03:04:54;10.60;99.90
18218;DHT22;9234;49.344;11.120;2023-04-29T03:07:22;10.50;99.90
18218;DHT22;9234;49.344;11.120;2023-04-29T03:09:51;10.50;99.90
18218;DHT22;9234;49.344;11.120;2023-04-29T03:12:20;10.50;99.90
18218;DHT22;9234;49.344;11.120;2023-04-29T03:14:49;10.50;99.90
18218;DHT22;9234;49.344;11.120;2023-04-29T03:17:17;10.50;99.90
18218;DHT22;9234;49.344;11.120;2023-04-29T03:19:45;10.40;99.90
18218;DHT22;9234;49.344;11.120;2023-04-29T03:22:15;10.40;99.90
18218;DHT22;9234;49.344;11.120;2023-04-29T03:24:43;10.40;99.90
18218;DHT22;9234;49.344;11.120;2023-04-29T03:27:12;10.40;99.90
18218;DHT22;9234;49.344;11.120;2023-04-29T03:29:40;10.30;99.90
18218;DHT22;9234;49.344;11.120;2023-04-29T03:32:09;10.30;99.90
18218;DHT22;9234;49.344;11.120;2023-04-29T03:34:37;10.20;99.90
18218;DHT22;9234;49.344;11.120;2023-04-29T03:37:27;10.20;99.90
18218;DHT22;9234;49.344;11.120;2023-04-29T03:40:08;10.10;99.90
18218;DHT22;9234;49.344;11.120;2023-04-29T03:42:38;10.10;99.90
18218;DHT22;9234;49.344;11.120;2023-04-29T03:45:08;10.10;99.90
18218;DHT22;9234;49.344;11.120;2023-04-29T03:47:41;10.10;99.90
18218;DHT22;9234;49.344;11.120;2023-04-29T03:50:10;10.10;99.90
18218;DHT22;9234;49.344;11.120;2023-04-29T03:52:40;10.10;99.90
18218;DHT22;9234;49.344;11.120;2023-04-29T03:55:13;10.20;99.90
18218;DHT22;9234;49.344;11.120;2023-04-29T03:57:42;10.20;99.90
18218;DHT22;9234;49.344;11.120;2023-04-29T04:00:12;10.20;99.90
18218;DHT22;9234;49.344;11.120;2023-04-29T04:02:49;10.20;99.90
18218;DHT22;9234;49.344;11.120;2023-04-29T04:05:17;10.20;99.90
18218;DHT22;9234;49.344;11.120;2023-04-29T04:07:53;10.20;99.90
18218;DHT22;9234;49.344;11.120;2023-04-29T04:10:33;10.30;99.90
18218;DHT22;9234;49.344;11.120;2023-04-29T04:13:07;10.30;99.90
18218;DHT22;9234;49.344;11.120;2023-04-29T04:15:35;10.30;99.90
18218;DHT22;9234;49.344;11.120;2023-04-29T04:18:03;10.30;99.90
18218;DHT22;9234;49.344;11.120;2023-04-29T04:20:32;10.40;99.90
18218;DHT22;9234;49.344;11.120;2023-04-29T04:23:01;10.40;99.90
18218;DHT22;9234;49.344;11.120;2023-04-29T04:25:29;10.40;99.90
18218;DHT22;9234;49.344;11.120;2023-04-29T04:28:11;10.40;99.90
18218;DHT22;9234;49.344;11.120;2023-04-29T04:30:53;10.50;99.90
18218;DHT22;9234;49.344;11.120;2023-04-29T04:33:21;10.50;99.90
18218;DHT22;9234;49.344;11.120;2023-04-29T04:35:49;10.60;99.90
18218;DHT22;9234;49.344;11.120;2023-04-29T04:38:19;10.60;99.90
18218;DHT22;9234;49.344;11.120;2023-04-29T04:40:47;10.60;99.90
18218;DHT22;9234;49.344;11.120;2023-04-29T04:43:28;10.60;99.90
18218;DHT22;9234;49.344;11.120;2023-04-29T04:45:56;10.70;99.90
18218;DHT22;9234;49.344;11.120;2023-04-29T04:48:25;10.70;99.90
18218;DHT22;9234;49.344;11.120;2023-04-29T04:50:53;10.70;99.90
18218;DHT22;9234;49.344;11.120;2023-04-29T04:53:23;10.80;99.90
18218;DHT22;9234;49.344;11.120;2023-04-29T04:55:59;10.90;99.90
18218;DHT22;9234;49.344;11.120;2023-04-29T04:58:29;10.90;99.90
18218;DHT22;9234;49.344;11.120;2023-04-29T05:00:58;10.90;99.90
18218;DHT22;9234;49.344;11.120;2023-04-29T05:03:27;11.00;99.90
18218;DHT22;9234;49.344;11.120;2023-04-29T05:05:56;11.00;99.90
18218;DHT22;9234;49.344;11.120;2023-04-29T05:08:28;11.10;99.90
18218;DHT22;9234;49.344;11.120;2023-04-29T05:10:58;11.20;99.90
18218;DHT22;9234;49.344;11.120;2023-04-29T05:13:26;11.20;99.90
18218;DHT22;9234;49.344;11.120;2023-04-29T05:15:55;11.30;99.90
18218;DHT22;9234;49.344;11.120;2023-04-29T05:18:27;11.30;99.90
18218;DHT22;9234;49.344;11.120;2023-04-29T05:20:55;11.30;99.90
18218;DHT22;9234;49.344;11.120;2023-04-29T05:23:24;11.40;99.90
18218;DHT22;9234;49.344;11.120;2023-04-29T05:25:53;11.40;99.90
18218;DHT22;9234;49.344;11.120;2023-04-29T05:28:22;11.40;99.90
18218;DHT22;9234;49.344;11.120;2023-04-29T05:30:53;11.50;99.90
18218;DHT22;9234;49.344;11.120;2023-04-29T05:33:22;11.60;99.90
18218;DHT22;9234;49.344;11.120;2023-04-29T05:35:50;11.70;99.90
18218;DHT22;9234;49.344;11.120;2023-04-29T05:38:18;11.80;99.90
18218;DHT22;9234;49.344;11.120;2023-04-29T05:40:55;11.90;99.90
18218;DHT22;9234;49.344;11.120;2023-04-29T05:43:41;12.00;99.90
18218;DHT22;9234;49.344;11.120;2023-04-29T05:46:12;12.10;99.90
18218;DHT22;9234;49.344;11.120;2023-04-29T05:48:40;12.20;99.90
18218;DHT22;9234;49.344;11.120;2023-04-29T05:51:11;12.30;99.90
18218;DHT22;9234;49.344;11.120;2023-04-29T05:53:40;12.40;99.90
18218;DHT22;9234;49.344;11.120;2023-04-29T05:56:09;12.50;99.90
18218;DHT22;9234;49.344;11.120;2023-04-29T05:58:39;12.60;99.90
18218;DHT22;9234;49.344;11.120;2023-04-29T06:01:07;12.70;99.90
18218;DHT22;9234;49.344;11.120;2023-04-29T06:03:35;12.80;99.90
18218;DHT22;9234;49.344;11.120;2023-04-29T06:06:22;13.00;99.90
18218;DHT22;9234;49.344;11.120;2023-04-29T06:09:09;13.10;99.90
18218;DHT22;9234;49.344;11.120;2023-04-29T06:11:56;13.20;99.90
18218;DHT22;9234;49.344;11.120;2023-04-29T06:14:24;13.30;99.90
18218;DHT22;9234;49.344;11.120;2023-04-29T06:16:52;13.40;99.90
18218;DHT22;9234;49.344;11.120;2023-04-29T06:19:22;13.50;99.90
18218;DHT22;9234;49.344;11.120;2023-04-29T06:21:51;13.60;99.90
18218;DHT22;9234;49.344;11.120;2023-04-29T06:24:20;13.70;99.90
18218;DHT22;9234;49.344;11.120;2023-04-29T06:26:48;13.80;99.90
18218;DHT22;9234;49.344;11.120;2023-04-29T06:29:26;13.80;99.90
18218;DHT22;9234;49.344;11.120;2023-04-29T06:31:54;13.90;99.90
18218;DHT22;9234;49.344;11.120;2023-04-29T06:34:22;14.00;99.90
18218;DHT22;9234;49.344;11.120;2023-04-29T06:37:17;14.10;99.90
18218;DHT22;9234;49.344;11.120;2023-04-29T06:40:06;14.20;99.90
18218;DHT22;9234;49.344;11.120;2023-04-29T06:42:50;14.20;99.90
18218;DHT22;9234;49.344;11.120;2023-04-29T06:45:46;14.30;99.90
18218;DHT22;9234;49.344;11.120;2023-04-29T06:48:25;14.30;99.90
18218;DHT22;9234;49.344;11.120;2023-04-29T06:50:55;14.40;99.90
18218;DHT22;9234;49.344;11.120;2023-04-29T06:53:24;14.50;99.90
18218;DHT22;9234;49.344;11.120;2023-04-29T06:55:52;14.50;99.90
18218;DHT22;9234;49.344;11.120;2023-04-29T06:58:20;14.60;99.90
18218;DHT22;9234;49.344;11.120;2023-04-29T07:00:50;14.70;99.90
18218;DHT22;9234;49.344;11.120;2023-04-29T07:03:21;14.90;99.90
18218;DHT22;9234;49.344;11.120;2023-04-29T07:05:49;15.00;99.90
18218;DHT22;9234;49.344;11.120;2023-04-29T07:08:17;15.00;99.90
18218;DHT22;9234;49.344;11.120;2023-04-29T07:10:53;15.10;99.90
18218;DHT22;9234;49.344;11.120;2023-04-29T07:13:22;15.10;99.90
18218;DHT22;9234;49.344;11.120;2023-04-29T07:15:52;15.10;99.90
18218;DHT22;9234;49.344;11.120;2023-04-29T07:18:20;15.20;99.90
18218;DHT22;9234;49.344;11.120;2023-04-29T07:20:49;15.40;99.90
18218;DHT22;9234;49.344;11.120;2023-04-29T07:23:18;15.60;99.90
18218;DHT22;9234;49.344;11.120;2023-04-29T07:25:46;15.70;99.90
18218;DHT22;9234;49.344;11.120;2023-04-29T07:28:15;15.80;99.90
18218;DHT22;9234;49.344;11.120;2023-04-29T07:30:43;15.70;99.90
18218;DHT22;9234;49.344;11.120;2023-04-29T07:33:13;15.70;99.90
18218;DHT22;9234;49.344;11.120;2023-04-29T07:35:41;15.60;99.90
18218;DHT22;9234;49.344;11.120;2023-04-29T07:38:10;15.50;99.90
18218;DHT22;9234;49.344;11.120;2023-04-29T07:40:40;15.50;99.90
18218;DHT22;9234;49.344;11.120;2023-04-29T07:43:09;15.40;99.90
18218;DHT22;9234;49.344;11.120;2023-04-29T07:45:38;15.30;99.90
18218;DHT22;9234;49.344;11.120;2023-04-29T07:48:07;15.30;99.90
18218;DHT22;9234;49.344;11.120;2023-04-29T07:50:36;15.30;99.90
18218;DHT22;9234;49.344;11.120;2023-04-29T07:53:05;15.30;99.90
18218;DHT22;9234;49.344;11.120;2023-04-29T07:55:36;15.30;99.90
18218;DHT22;9234;49.344;11.120;2023-04-29T07:58:04;15.30;99.90
18218;DHT22;9234;49.344;11.120;2023-04-29T08:00:33;15.40;99.90
18218;DHT22;9234;49.344;11.120;2023-04-29T08:03:01;15.50;99.90
18218;DHT22;9234;49.344;11.120;2023-04-29T08:05:29;15.50;99.90
18218;DHT22;9234;49.344;11.120;2023-04-29T08:07:59;15.60;99.90
18218;DHT22;9234;49.344;11.120;2023-04-29T08:10:27;15.70;99.90
18218;DHT22;9234;49.344;11.120;2023-04-29T08:12:56;15.90;99.90
18218;DHT22;9234;49.344;11.120;2023-04-29T08:15:24;15.90;99.90
18218;DHT22;9234;49.344;11.120;2023-04-29T08:17:53;16.10;99.90
18218;DHT22;9234;49.344;11.120;2023-04-29T08:20:21;16.30;99.90
18218;DHT22;9234;49.344;11.120;2023-04-29T08:22:50;16.40;99.90
18218;DHT22;9234;49.344;11.120;2023-04-29T08:25:20;16.50;99.90
18218;DHT22;9234;49.344;11.120;2023-04-29T08:27:48;16.50;99.90
18218;DHT22;9234;49.344;11.120;2023-04-29T08:30:17;16.50;99.90
18218;DHT22;9234;49.344;11.120;2023-04-29T08:32:45;16.40;99.90
18218;DHT22;9234;49.344;11.120;2023-04-29T08:35:14;16.40;99.90
18218;DHT22;9234;49.344;11.120;2023-04-29T08:37:42;16.20;99.90
18218;DHT22;9234;49.344;11.120;2023-04-29T08:40:12;16.20;99.90
18218;DHT22;9234;49.344;11.120;2023-04-29T08:42:43;16.10;99.90
18218;DHT22;9234;49.344;11.120;2023-04-29T08:45:15;16.00;99.90
18218;DHT22;9234;49.344;11.120;2023-04-29T08:47:47;15.90;99.90
18218;DHT22;9234;49.344;11.120;2023-04-29T08:50:17;15.90;99.90
18218;DHT22;9234;49.344;11.120;2023-04-29T08:52:45;15.90;99.90
18218;DHT22;9234;49.344;11.120;2023-04-29T08:55:14;15.90;99.90
18218;DHT22;9234;49.344;11.120;2023-04-29T08:57:44;15.80;99.90
18218;DHT22;9234;49.344;11.120;2023-04-29T09:00:16;15.80;99.90
18218;DHT22;9234;49.344;11.120;2023-04-29T09:02:48;15.80;99.90
18218;DHT22;9234;49.344;11.120;2023-04-29T09:05:18;15.80;99.90
18218;DHT22;9234;49.344;11.120;2023-04-29T09:07:47;15.80;99.90
18218;DHT22;9234;49.344;11.120;2023-04-29T09:10:18;16.00;99.90
18218;DHT22;9234;49.344;11.120;2023-04-29T09:12:48;16.10;99.90
18218;DHT22;9234;49.344;11.120;2023-04-29T09:15:17;16.30;99.90
18218;DHT22;9234;49.344;11.120;2023-04-29T09:17:46;16.50;99.90
18218;DHT22;9234;49.344;11.120;2023-04-29T09:20:28;16.60;99.90
18218;DHT22;9234;49.344;11.120;2023-04-29T09:22:59;16.80;99.90
18218;DHT22;9234;49.344;11.120;2023-04-29T09:25:29;17.00;99.90
18218;DHT22;9234;49.344;11.120;2023-04-29T09:28:13;17.00;99.90
18218;DHT22;9234;49.344;11.120;2023-04-29T09:30:46;17.10;99.90
18218;DHT22;9234;49.344;11.120;2023-04-29T09:33:16;17.30;99.90
18218;DHT22;9234;49.344;11.120;2023-04-29T09:35:44;17.20;99.90
18218;DHT22;9234;49.344;11.120;2023-04-29T09:38:15;17.00;99.90
18218;DHT22;9234;49.344;11.120;2023-04-29T09:40:44;16.90;99.90
18218;DHT22;9234;49.344;11.120;2023-04-29T09:43:27;16.60;99.90
18218;DHT22;9234;49.344;11.120;2023-04-29T09:45:55;16.40;99.90
18218;DHT22;9234;49.344;11.120;2023-04-29T09:48:30;16.30;99.90
18218;DHT22;9234;49.344;11.120;2023-04-29T09:51:01;16.30;99.90
18218;DHT22;9234;49.344;11.120;2023-04-29T09:53:30;16.30;99.90
18218;DHT22;9234;49.344;11.120;2023-04-29T09:56:00;16.30;99.90
18218;DHT22;9234;49.344;11.120;2023-04-29T09:58:33;16.50;99.90
18218;DHT22;9234;49.344;11.120;2023-04-29T10:01:04;16.70;99.90
18218;DHT22;9234;49.344;11.120;2023-04-29T10:03:34;16.90;99.90
18218;DHT22;9234;49.344;11.120;2023-04-29T10:06:06;17.00;99.90
18218;DHT22;9234;49.344;11.120;2023-04-29T10:08:35;17.20;99.90
18218;DHT22;9234;49.344;11.120;2023-04-29T10:11:04;17.40;99.90
18218;DHT22;9234;49.344;11.120;2023-04-29T10:13:34;17.60;99.90
18218;DHT22;9234;49.344;11.120;2023-04-29T10:16:17;17.70;99.90
18218;DHT22;9234;49.344;11.120;2023-04-29T10:18:55;17.80;99.90
18218;DHT22;9234;49.344;11.120;2023-04-29T10:21:30;17.90;99.90
18218;DHT22;9234;49.344;11.120;2023-04-29T10:24:00;18.00;99.90
18218;DHT22;9234;49.344;11.120;2023-04-29T10:26:30;17.90;99.90
18218;DHT22;9234;49.344;11.120;2023-04-29T10:29:01;18.00;99.90
18218;DHT22;9234;49.344;11.120;2023-04-29T10:31:31;18.10;99.90
18218;DHT22;9234;49.344;11.120;2023-04-29T10:34:02;18.20;99.90
18218;DHT22;9234;49.344;11.120;2023-04-29T10:36:31;18.20;99.90
18218;DHT22;9234;49.344;11.120;2023-04-29T10:39:02;18.10;99.90
18218;DHT22;9234;49.344;11.120;2023-04-29T10:41:36;17.90;99.90
18218;DHT22;9234;49.344;11.120;2023-04-29T10:44:15;17.80;99.90
18218;DHT22;9234;49.344;11.120;2023-04-29T10:46:43;17.60;99.90
18218;DHT22;9234;49.344;11.120;2023-04-29T10:49:11;17.50;99.90
18218;DHT22;9234;49.344;11.120;2023-04-29T10:51:40;17.50;99.90
18218;DHT22;9234;49.344;11.120;2023-04-29T10:54:12;17.40;99.90
18218;DHT22;9234;49.344;11.120;2023-04-29T10:56:43;17.20;99.90
18218;DHT22;9234;49.344;11.120;2023-04-29T10:59:20;17.10;99.90
18218;DHT22;9234;49.344;11.120;2023-04-29T11:01:50;17.00;99.90
18218;DHT22;9234;49.344;11.120;2023-04-29T11:04:20;17.20;99.90
18218;DHT22;9234;49.344;11.120;2023-04-29T11:06:51;17.30;99.90
18218;DHT22;9234;49.344;11.120;2023-04-29T11:09:24;17.50;99.90
18218;DHT22;9234;49.344;11.120;2023-04-29T11:12:00;17.50;99.90
18218;DHT22;9234;49.344;11.120;2023-04-29T11:14:34;17.60;99.90
18218;DHT22;9234;49.344;11.120;2023-04-29T11:17:06;17.80;99.90
18218;DHT22;9234;49.344;11.120;2023-04-29T11:19:40;17.80;99.90
18218;DHT22;9234;49.344;11.120;2023-04-29T11:22:13;17.90;99.90
18218;DHT22;9234;49.344;11.120;2023-04-29T11:24:53;17.90;99.90
18218;DHT22;9234;49.344;11.120;2023-04-29T11:27:24;18.00;99.90
18218;DHT22;9234;49.344;11.120;2023-04-29T11:29:56;17.90;99.90
18218;DHT22;9234;49.344;11.120;2023-04-29T11:32:26;17.70;99.90
18218;DHT22;9234;49.344;11.120;2023-04-29T11:35:06;17.50;99.90
18218;DHT22;9234;49.344;11.120;2023-04-29T11:37:36;17.30;99.90
18218;DHT22;9234;49.344;11.120;2023-04-29T11:40:05;17.10;99.90
18218;DHT22;9234;49.344;11.120;2023-04-29T11:42:34;16.90;99.90
18218;DHT22;9234;49.344;11.120;2023-04-29T11:45:05;16.70;99.90
18218;DHT22;9234;49.344;11.120;2023-04-29T11:47:34;16.60;99.90
18218;DHT22;9234;49.344;11.120;2023-04-29T11:50:03;16.70;99.90
18218;DHT22;9234;49.344;11.120;2023-04-29T11:52:35;16.60;99.90
18218;DHT22;9234;49.344;11.120;2023-04-29T11:55:07;16.60;99.90
18218;DHT22;9234;49.344;11.120;2023-04-29T11:57:36;16.60;99.90
18218;DHT22;9234;49.344;11.120;2023-04-29T12:00:09;16.60;99.90
18218;DHT22;9234;49.344;11.120;2023-04-29T12:02:43;16.60;99.90
18218;DHT22;9234;49.344;11.120;2023-04-29T12:05:14;16.60;99.90
18218;DHT22;9234;49.344;11.120;2023-04-29T12:07:43;16.50;99.90
18218;DHT22;9234;49.344;11.120;2023-04-29T12:10:11;16.40;99.90
18218;DHT22;9234;49.344;11.120;2023-04-29T12:12:40;16.40;99.90
18218;DHT22;9234;49.344;11.120;2023-04-29T12:15:11;16.40;99.90
18218;DHT22;9234;49.344;11.120;2023-04-29T12:17:41;16.50;99.90
18218;DHT22;9234;49.344;11.120;2023-04-29T12:20:12;16.60;99.90
18218;DHT22;9234;49.344;11.120;2023-04-29T12:22:41;16.70;99.90
18218;DHT22;9234;49.344;11.120;2023-04-29T12:25:10;16.70;99.90
18218;DHT22;9234;49.344;11.120;2023-04-29T12:27:39;16.80;99.90
18218;DHT22;9234;49.344;11.120;2023-04-29T12:30:10;16.90;99.90
18218;DHT22;9234;49.344;11.120;2023-04-29T12:32:39;16.90;99.90
18218;DHT22;9234;49.344;11.120;2023-04-29T12:35:14;17.00;99.90
18218;DHT22;9234;49.344;11.120;2023-04-29T12:37:47;17.00;99.90
18218;DHT22;9234;49.344;11.120;2023-04-29T12:40:16;17.10;99.90
18218;DHT22;9234;49.344;11.120;2023-04-29T12:42:46;17.20;99.90
18218;DHT22;9234;49.344;11.120;2023-04-29T12:45:28;17.20;99.90
18218;DHT22;9234;49.344;11.120;2023-04-29T12:47:58;17.20;99.90
18218;DHT22;9234;49.344;11.120;2023-04-29T12:50:31;17.10;99.90
18218;DHT22;9234;49.344;11.120;2023-04-29T12:53:01;17.00;99.90
18218;DHT22;9234;49.344;11.120;2023-04-29T12:55:31;17.00;99.90
18218;DHT22;9234;49.344;11.120;2023-04-29T12:58:01;16.90;99.90
18218;DHT22;9234;49.344;11.120;2023-04-29T13:00:31;16.80;99.90
18218;DHT22;9234;49.344;11.120;2023-04-29T13:03:00;16.80;99.90
18218;DHT22;9234;49.344;11.120;2023-04-29T13:05:30;16.80;99.90
18218;DHT22;9234;49.344;11.120;2023-04-29T13:07:58;16.70;99.90
18218;DHT22;9234;49.344;11.120;2023-04-29T13:10:26;16.80;99.90
18218;DHT22;9234;49.344;11.120;2023-04-29T13:12:55;16.80;99.90
18218;DHT22;9234;49.344;11.120;2023-04-29T13:15:23;16.80;99.90
18218;DHT22;9234;49.344;11.120;2023-04-29T13:17:53;16.70;99.90
18218;DHT22;9234;49.344;11.120;2023-04-29T13:20:21;16.70;99.90
18218;DHT22;9234;49.344;11.120;2023-04-29T13:22:50;16.60;99.90
18218;DHT22;9234;49.344;11.120;2023-04-29T13:25:18;16.70;99.90
18218;DHT22;9234;49.344;11.120;2023-04-29T13:27:46;16.70;99.90
18218;DHT22;9234;49.344;11.120;2023-04-29T13:30:15;16.70;99.90
18218;DHT22;9234;49.344;11.120;2023-04-29T13:32:43;16.70;99.90
18218;DHT22;9234;49.344;11.120;2023-04-29T13:35:22;16.70;99.90
18218;DHT22;9234;49.344;11.120;2023-04-29T13:37:50;16.80;99.90
18218;DHT22;9234;49.344;11.120;2023-04-29T13:40:19;16.90;99.90
18218;DHT22;9234;49.344;11.120;2023-04-29T13:42:47;17.00;99.90
18218;DHT22;9234;49.344;11.120;2023-04-29T13:45:25;17.00;99.90
18218;DHT22;9234;49.344;11.120;2023-04-29T13:47:54;17.00;99.90
18218;DHT22;9234;49.344;11.120;2023-04-29T13:50:43;17.00;99.90
18218;DHT22;9234;49.344;11.120;2023-04-29T13:53:14;17.00;99.90
18218;DHT22;9234;49.344;11.120;2023-04-29T13:55:46;17.10;99.90
18218;DHT22;9234;49.344;11.120;2023-04-29T13:58:17;17.20;99.90
18218;DHT22;9234;49.344;11.120;2023-04-29T14:00:48;17.30;99.90
18218;DHT22;9234;49.344;11.120;2023-04-29T14:03:19;17.30;99.90
18218;DHT22;9234;49.344;11.120;2023-04-29T14:05:49;17.40;99.90
18218;DHT22;9234;49.344;11.120;2023-04-29T14:08:18;17.60;99.90
18218;DHT22;9234;49.344;11.120;2023-04-29T14:10:46;17.70;99.90
18218;DHT22;9234;49.344;11.120;2023-04-29T14:13:14;17.80;99.70
18218;DHT22;9234;49.344;11.120;2023-04-29T14:15:43;17.90;99.90
18218;DHT22;9234;49.344;11.120;2023-04-29T14:18:11;18.00;99.90
18218;DHT22;9234;49.344;11.120;2023-04-29T14:20:39;17.90;99.00
18218;DHT22;9234;49.344;11.120;2023-04-29T14:23:09;17.80;99.30
18218;DHT22;9234;49.344;11.120;2023-04-29T14:25:37;17.70;99.10
18218;DHT22;9234;49.344;11.120;2023-04-29T14:28:05;17.60;99.10
18218;DHT22;9234;49.344;11.120;2023-04-29T14:30:34;17.50;98.70
18218;DHT22;9234;49.344;11.120;2023-04-29T14:33:02;17.50;98.90
18218;DHT22;9234;49.344;11.120;2023-04-29T14:35:31;17.50;98.90
18218;DHT22;9234;49.344;11.120;2023-04-29T14:37:59;17.40;98.90
18218;DHT22;9234;49.344;11.120;2023-04-29T14:40:28;17.40;99.10
18218;DHT22;9234;49.344;11.120;2023-04-29T14:42:57;17.30;98.70
18218;DHT22;9234;49.344;11.120;2023-04-29T14:45:25;17.20;98.80
18218;DHT22;9234;49.344;11.120;2023-04-29T14:47:53;17.20;99.10
18218;DHT22;9234;49.344;11.120;2023-04-29T14:50:22;17.00;98.80
18218;DHT22;9234;49.344;11.120;2023-04-29T14:52:50;16.90;99.10
18218;DHT22;9234;49.344;11.120;2023-04-29T14:55:19;16.70;99.30
18218;DHT22;9234;49.344;11.120;2023-04-29T14:57:48;16.70;99.40
18218;DHT22;9234;49.344;11.120;2023-04-29T15:00:16;16.60;99.10
18218;DHT22;9234;49.344;11.120;2023-04-29T15:02:45;16.50;99.00
18218;DHT22;9234;49.344;11.120;2023-04-29T15:05:13;16.30;99.10
18218;DHT22;9234;49.344;11.120;2023-04-29T15:07:41;16.30;99.40
18218;DHT22;9234;49.344;11.120;2023-04-29T15:10:10;16.10;99.50
18218;DHT22;9234;49.344;11.120;2023-04-29T15:12:38;16.10;99.70
18218;DHT22;9234;49.344;11.120;2023-04-29T15:15:09;16.00;99.90
18218;DHT22;9234;49.344;11.120;2023-04-29T15:17:37;15.90;99.90
18218;DHT22;9234;49.344;11.120;2023-04-29T15:20:07;15.90;99.90
18218;DHT22;9234;49.344;11.120;2023-04-29T15:22:36;15.80;99.90
18218;DHT22;9234;49.344;11.120;2023-04-29T15:25:04;15.70;99.90
18218;DHT22;9234;49.344;11.120;2023-04-29T15:27:35;15.70;99.90
18218;DHT22;9234;49.344;11.120;2023-04-29T15:30:05;15.70;99.90
18218;DHT22;9234;49.344;11.120;2023-04-29T15:32:35;15.70;99.90
18218;DHT22;9234;49.344;11.120;2023-04-29T15:35:05;15.70;99.90
18218;DHT22;9234;49.344;11.120;2023-04-29T15:37:35;15.70;99.90
18218;DHT22;9234;49.344;11.120;2023-04-29T15:40:03;15.70;99.90
18218;DHT22;9234;49.344;11.120;2023-04-29T15:42:32;15.70;99.90
18218;DHT22;9234;49.344;11.120;2023-04-29T15:45:01;15.60;99.90
18218;DHT22;9234;49.344;11.120;2023-04-29T15:47:29;15.60;99.90
18218;DHT22;9234;49.344;11.120;2023-04-29T15:49:58;15.50;99.90
18218;DHT22;9234;49.344;11.120;2023-04-29T15:52:27;15.50;99.90
18218;DHT22;9234;49.344;11.120;2023-04-29T15:54:55;15.50;99.90